Time;durP1;ratioP1;P1;durP2;ratioP2;P2;SDS_P1;SDS_P2;PMS_P1;PMS_P2;Temp;Humidity;BMP_temperature;BMP_pressure;BME280_temperature;BME280_humidity;BME280_pressure;Samples;Min_cycle;Max_cycle;Signal;HPM_P1;HPM_P2
2023/03/14 05:42:55;;;;;;;;;4.75;2.25;;;;;9.80;100.00;99505.97;4949826;28;50366;-71
2023/03/14 05:45:20;;;;;;;;;3.00;2.25;;;;;9.89;100.00;99533.97;4950482;28;49786;-71
2023/03/14 05:47:46;;;;;;;;;7.75;4.00;;;;;9.96;100.00;99583.81;4950723;28;49673;-69
2023/03/14 05:50:12;;;;;;;;;2.00;2.00;;;;;8.89;100.00;99447.03;4950289;28;50038;-73
2023/03/14 05:52:37;;;;;;;;;2.50;2.50;;;;;9.83;100.00;99574.13;4950672;28;50100;-71
2023/03/14 05:55:03;;;;;;;;;2.25;2.00;;;;;9.95;100.00;99604.78;4951265;28;49847;-71
2023/03/14 05:57:28;;;;;;;;;3.00;3.00;;;;;9.24;100.00;99497.81;4951303;28;49697;-75
2023/03/14 05:59:54;;;;;;;;;3.50;3.50;;;;;9.09;100.00;99491.66;4951300;28;49749;-73
2023/03/14 06:02:19;;;;;;;;;3.25;2.00;;;;;8.56;100.00;99410.13;4951144;28;49825;-72
2023/03/14 06:04:44;;;;;;;;;1.75;1.75;;;;;8.01;100.00;99347.81;4949830;28;49829;-70
2023/03/14 06:07:10;;;;;;;;;5.50;4.25;;;;;9.27;100.00;99585.16;4951218;28;49618;-74
2023/03/14 06:09:35;;;;;;;;;3.25;3.00;;;;;9.66;100.00;99691.09;4951421;28;49856;-74
2023/03/14 06:12:01;;;;;;;;;2.50;2.50;;;;;8.24;100.00;99460.41;4951226;28;50902;-73
2023/03/14 06:14:26;;;;;;;;;8.75;5.00;;;;;8.96;100.00;99606.69;4952338;28;49709;-77
2023/03/14 06:16:52;;;;;;;;;3.25;2.00;;;;;9.21;100.00;99663.66;4951104;28;50200;-75
2023/03/14 06:19:17;;;;;;;;;6.00;4.50;;;;;8.46;100.00;99597.50;4951413;28;50117;-72
2023/03/14 06:21:43;;;;;;;;;1.00;1.00;;;;;9.48;100.00;99746.84;4950947;28;50751;-70
2023/03/14 06:24:08;;;;;;;;;5.25;3.00;;;;;9.34;100.00;99733.59;4951220;28;49871;-71
2023/03/14 06:26:34;;;;;;;;;2.00;2.00;;;;;9.24;100.00;99712.56;4950850;28;49740;-75
2023/03/14 06:29:03;;;;;;;;;2.75;2.75;;;;;8.92;100.00;99686.94;4951130;28;49684;-73
2023/03/14 06:31:29;;;;;;;;;5.50;3.00;;;;;8.91;100.00;99693.03;4950703;28;49986;-71
2023/03/14 06:33:54;;;;;;;;;3.75;2.25;;;;;8.87;100.00;99725.25;4933322;28;49881;-71
2023/03/14 06:36:20;;;;;;;;;5.00;4.50;;;;;9.23;100.00;99779.78;4950665;28;49605;-73
2023/03/14 06:38:45;;;;;;;;;6.00;3.50;;;;;9.22;100.00;99793.72;4954304;28;50236;-68
2023/03/14 06:41:10;;;;;;;;;3.25;2.50;;;;;9.05;100.00;99769.97;4953593;28;56965;-70
2023/03/14 06:43:36;;;;;;;;;5.75;2.75;;;;;9.17;100.00;99804.16;4952494;28;49968;-68
2023/03/14 06:46:01;;;;;;;;;2.75;2.75;;;;;9.36;100.00;99844.53;4968088;28;50186;-72
2023/03/14 06:48:26;;;;;;;;;4.50;2.50;;;;;9.34;100.00;99871.53;4975604;28;49873;-69
2023/03/14 06:50:52;;;;;;;;;3.25;2.25;;;;;9.31;100.00;99869.78;4967699;28;59739;-71
2023/03/14 06:53:17;;;;;;;;;3.00;3.00;;;;;9.21;100.00;99867.03;4953991;28;49452;-76
2023/03/14 06:55:43;;;;;;;;;4.50;2.50;;;;;8.66;100.00;99773.00;4960072;28;49604;-71
2023/03/14 06:58:08;;;;;;;;;2.00;2.00;;;;;8.92;100.00;99825.66;4954103;28;49918;-71
2023/03/14 07:00:34;;;;;;;;;7.50;7.00;;;;;9.27;100.00;99901.16;4953664;28;51322;-73
2023/03/14 07:03:00;;;;;;;;;4.75;3.00;;;;;8.95;100.00;99844.03;4952387;28;49879;-71
2023/03/14 07:05:26;;;;;;;;;5.75;3.50;;;;;8.79;100.00;99831.63;4953737;28;49655;-72
2023/03/14 07:07:51;;;;;;;;;5.00;2.75;;;;;9.10;100.00;99903.56;4953535;28;49845;-71
2023/03/14 07:10:16;;;;;;;;;6.75;3.00;;;;;8.84;100.00;99859.59;4951915;28;51396;-72
2023/03/14 07:12:42;;;;;;;;;2.75;0.75;;;;;8.89;100.00;99872.75;4953637;28;49715;-71
2023/03/14 07:15:10;;;;;;;;;2.00;2.00;;;;;8.91;100.00;99896.31;4965609;28;49989;-70
2023/03/14 07:17:36;;;;;;;;;2.00;2.00;;;;;8.97;100.00;99905.13;4972523;28;49770;-71
2023/03/14 07:20:04;;;;;;;;;5.25;3.25;;;;;8.74;100.00;99883.00;4971967;28;49659;-74
2023/03/14 07:22:29;;;;;;;;;3.50;2.75;;;;;8.88;100.00;99925.97;4972537;28;49706;-75
2023/03/14 07:24:54;;;;;;;;;2.00;2.00;;;;;8.81;100.00;99952.91;4973007;28;50018;-79
2023/03/14 07:27:19;;;;;;;;;1.00;1.00;;;;;8.70;100.00;99931.81;4972926;28;49967;-76
2023/03/14 07:29:45;;;;;;;;;0.50;0.50;;;;;8.78;100.00;99958.06;4972108;28;50958;-74
2023/03/14 07:32:14;;;;;;;;;4.00;1.75;;;;;8.63;100.00;99947.38;4972195;28;49730;-73
2023/03/14 07:34:40;;;;;;;;;3.00;2.00;;;;;8.85;100.00;99991.34;4972012;28;49927;-71
2023/03/14 07:37:05;;;;;;;;;4.75;2.75;;;;;8.54;100.00;99912.38;4972197;28;49981;-73
2023/03/14 07:39:30;;;;;;;;;6.00;4.00;;;;;8.54;100.00;99885.31;4971701;28;50514;-73
2023/03/14 07:41:56;;;;;;;;;3.50;2.25;;;;;8.51;100.00;99908.84;4971605;28;49923;-78
2023/03/14 07:44:24;;;;;;;;;2.00;1.00;;;;;8.15;100.00;99820.19;4971746;28;49928;-79
2023/03/14 07:46:50;;;;;;;;;6.00;2.00;;;;;7.56;100.00;99771.34;4970183;28;49947;-77
2023/03/14 07:49:15;;;;;;;;;2.25;1.75;;;;;9.23;100.00;100039.03;4970714;28;50066;-80
2023/03/14 07:51:40;;;;;;;;;2.75;1.00;;;;;8.25;100.00;99874.38;4971247;28;49748;-79
2023/03/14 07:54:06;;;;;;;;;3.50;1.00;;;;;8.73;100.00;99950.16;4971200;28;49779;-81
2023/03/14 07:56:31;;;;;;;;;2.75;2.25;;;;;8.00;100.00;99816.47;4971779;28;49935;-80
2023/03/14 07:58:57;;;;;;;;;3.75;2.00;;;;;9.07;100.00;100016.09;4971589;28;49831;-78
2023/03/14 08:01:22;;;;;;;;;4.25;2.00;;;;;9.38;100.00;100069.81;4971351;28;49863;-78
2023/03/14 08:03:47;;;;;;;;;2.75;1.50;;;;;7.88;100.00;99849.38;4971773;28;50043;-78
2023/03/14 08:06:13;;;;;;;;;3.75;2.50;;;;;8.24;100.00;99870.03;4972014;28;49817;-78
2023/03/14 08:08:38;;;;;;;;;1.75;1.75;;;;;9.00;100.00;100009.03;4971709;28;50949;-83
2023/03/14 08:11:05;;;;;;;;;1.00;1.00;;;;;8.36;100.00;99896.38;4960187;28;49866;-78
2023/03/14 08:13:31;;;;;;;;;5.50;0.75;;;;;8.48;100.00;99898.31;4951243;28;49758;-78
2023/03/14 08:15:57;;;;;;;;;1.00;1.00;;;;;8.11;100.00;99882.03;4952596;28;50049;-78
2023/03/14 08:18:22;;;;;;;;;6.50;3.00;;;;;9.54;100.00;100139.03;4966963;28;51307;-77
2023/03/14 08:20:47;;;;;;;;;1.00;1.00;;;;;9.55;100.00;100127.69;4952280;28;49899;-79
2023/03/14 08:23:13;;;;;;;;;2.50;2.00;;;;;8.27;100.00;99860.47;4952485;28;49956;-80
2023/03/14 08:25:38;;;;;;;;;2.75;2.75;;;;;8.97;100.00;100011.56;4952552;28;50013;-77
2023/03/14 08:28:04;;;;;;;;;3.50;2.50;;;;;9.68;100.00;100129.63;4955840;28;50587;-79
2023/03/14 08:30:30;;;;;;;;;2.00;1.75;;;;;8.01;100.00;99817.38;4970064;28;49838;-79
2023/03/14 08:32:58;;;;;;;;;1.00;1.00;;;;;8.66;100.00;99916.91;4954752;28;49660;-79
2023/03/14 08:35:25;;;;;;;;;2.00;2.00;;;;;9.88;100.00;100149.16;4955373;28;49759;-78
2023/03/14 08:37:51;;;;;;;;;7.50;2.75;;;;;9.15;100.00;100004.88;4955878;28;49792;-78
2023/03/14 08:40:18;;;;;;;;;3.00;2.00;;;;;9.99;100.00;100141.41;4950819;28;49966;-79
2023/03/14 08:42:43;;;;;;;;;2.00;2.00;;;;;9.77;100.00;100098.31;4950628;28;49716;-77
2023/03/14 08:45:11;;;;;;;;;2.25;1.00;;;;;9.00;100.00;99959.28;4951041;28;49787;-76
2023/03/14 08:47:36;;;;;;;;;1.00;1.00;;;;;9.54;100.00;100011.50;4951602;28;49800;-77
2023/03/14 08:50:03;;;;;;;;;3.75;2.75;;;;;8.66;100.00;99807.00;4951912;28;49888;-78
2023/03/14 08:52:30;;;;;;;;;5.00;3.25;;;;;10.25;100.00;100068.34;4952021;28;49901;-78
2023/03/14 08:54:55;;;;;;;;;3.00;1.00;;;;;10.14;100.00;99978.16;4952013;28;50091;-78
2023/03/14 08:57:21;;;;;;;;;2.50;1.50;;;;;11.59;100.00;100168.50;4951658;28;50704;-77
2023/03/14 08:59:47;;;;;;;;;2.00;1.00;;;;;10.19;100.00;99906.50;4951120;28;49995;-77
2023/03/14 09:02:12;;;;;;;;;1.50;1.00;;;;;10.49;100.00;99955.75;4951947;28;49995;-76
2023/03/14 09:04:38;;;;;;;;;2.00;1.00;;;;;10.87;100.00;100076.81;4951814;28;49822;-78
2023/03/14 09:07:04;;;;;;;;;3.00;2.00;;;;;9.89;100.00;99927.19;4966278;28;52345;-78
2023/03/14 09:09:30;;;;;;;;;3.00;1.75;;;;;11.44;100.00;100166.59;4951691;28;49846;-78
2023/03/14 09:11:56;;;;;;;;;3.75;3.25;;;;;11.08;100.00;100131.28;4951929;28;49710;-78
2023/03/14 09:14:22;;;;;;;;;1.00;1.00;;;;;11.28;100.00;100214.63;4951639;28;50288;-77
2023/03/14 09:16:47;;;;;;;;;1.75;1.75;;;;;10.41;100.00;100051.88;4951260;28;50443;-77
2023/03/14 09:19:13;;;;;;;;;1.00;1.00;;;;;10.62;100.00;100143.09;4950455;28;49768;-78
2023/03/14 09:21:38;;;;;;;;;3.00;1.00;;;;;10.53;100.00;100177.13;4951862;28;49703;-78
2023/03/14 09:24:04;;;;;;;;;1.00;1.00;;;;;11.05;100.00;100273.09;4951826;28;50122;-78
2023/03/14 09:26:30;;;;;;;;;1.50;1.00;;;;;10.57;100.00;100181.53;4951516;28;51018;-78
2023/03/14 09:28:55;;;;;;;;;3.25;2.75;;;;;9.83;100.00;100116.72;4960859;28;49913;-78
2023/03/14 09:31:21;;;;;;;;;3.50;1.00;;;;;9.69;100.00;100115.69;4968716;28;50317;-77
2023/03/14 09:33:46;;;;;;;;;3.50;1.00;;;;;9.94;100.00;100185.94;4970435;28;49648;-77
2023/03/14 09:36:12;;;;;;;;;1.50;1.25;;;;;8.76;100.00;100061.84;4970002;28;50124;-77
2023/03/14 09:38:37;;;;;;;;;0.00;0.00;;;;;9.53;100.00;100159.09;4970046;28;49658;-77
2023/03/14 09:41:10;;;;;;;;;1.25;1.25;;;;;10.10;100.00;100247.34;4969946;28;49887;-78
2023/03/14 09:43:36;;;;;;;;;0.00;0.00;;;;;9.77;100.00;100168.22;4968714;28;50295;-78
2023/03/14 09:46:02;;;;;;;;;0.25;0.25;;;;;9.04;100.00;100039.63;4969664;28;49726;-78
2023/03/14 09:48:31;;;;;;;;;6.25;1.00;;;;;11.02;100.00;100307.22;4969804;28;49790;-78
2023/03/14 09:51:02;;;;;;;;;2.25;2.00;;;;;9.16;100.00;99980.44;4968647;28;49734;-79
2023/03/14 09:53:39;;;;;;;;;4.75;2.00;;;;;10.08;100.00;100187.88;4968815;28;49921;-77
2023/03/14 09:56:12;;;;;;;;;0.50;0.50;;;;;10.50;100.00;100293.41;4969589;28;50739;-79
2023/03/14 09:58:40;;;;;;;;;0.00;0.00;;;;;8.87;100.00;100096.91;4970170;28;49533;-78
2023/03/14 10:01:14;;;;;;;;;0.25;0.00;;;;;10.52;100.00;100387.94;4969952;28;49851;-76
2023/03/14 10:03:42;;;;;;;;;0.00;0.00;;;;;9.65;100.00;100266.78;4969941;28;49793;-78
2023/03/14 10:06:15;;;;;;;;;0.25;0.25;;;;;9.25;100.00;100204.94;4969429;28;49971;-77
2023/03/14 10:08:41;;;;;;;;;1.00;1.00;;;;;9.25;100.00;100189.22;4969344;28;49798;-77
2023/03/14 10:11:15;;;;;;;;;0.50;0.00;;;;;8.81;100.00;100136.97;4970493;28;49873;-77
2023/03/14 10:13:50;;;;;;;;;0.00;0.00;;;;;10.42;100.00;100402.66;4971981;28;49921;-77
2023/03/14 10:16:15;;;;;;;;;4.00;3.00;;;;;8.98;100.00;100167.81;4972847;28;50652;-77
2023/03/14 10:18:45;;;;;;;;;0.00;0.00;;;;;9.22;100.00;100193.53;4943343;28;49854;-77
2023/03/14 10:21:24;;;;;;;;;4.00;1.00;;;;;8.94;100.00;100210.47;4959420;28;49836;-78
2023/03/14 10:23:49;;;;;;;;;1.25;1.00;;;;;9.08;100.00;100228.22;4973391;28;49880;-77
2023/03/14 10:26:17;;;;;;;;;0.75;0.00;;;;;9.53;100.00;100312.81;4971253;28;50876;-78
2023/03/14 10:28:51;;;;;;;;;4.00;3.25;;;;;10.07;100.00;100422.16;4972954;28;49720;-78
2023/03/14 10:31:16;;;;;;;;;1.00;1.00;;;;;10.05;100.00;100395.91;4971625;28;50008;-77
2023/03/14 10:33:56;;;;;;;;;1.00;1.00;;;;;9.66;100.00;100362.00;4971747;28;49998;-78
2023/03/14 10:36:26;;;;;;;;;4.50;1.75;;;;;10.04;100.00;100394.13;4972422;28;49849;-77
2023/03/14 10:39:15;;;;;;;;;0.00;0.00;;;;;8.52;100.00;100162.59;4973193;28;49880;-77
2023/03/14 10:41:48;;;;;;;;;0.50;0.50;;;;;9.80;100.00;100351.75;4972476;28;49901;-77
2023/03/14 10:44:22;;;;;;;;;0.00;0.00;;;;;10.42;100.00;100410.53;4972833;28;49841;-77
2023/03/14 10:46:58;;;;;;;;;0.50;0.50;;;;;9.61;100.00;100246.59;4948643;28;49864;-78
2023/03/14 10:49:28;;;;;;;;;1.00;1.00;;;;;9.85;100.00;100298.53;4954078;28;49872;-77
2023/03/14 10:51:54;;;;;;;;;2.00;1.00;;;;;8.69;100.00;100071.34;4953781;28;49824;-78
2023/03/14 10:54:21;;;;;;;;;0.00;0.00;;;;;8.49;100.00;99975.91;4953996;28;49874;-77
2023/03/14 10:57:00;;;;;;;;;1.00;1.00;;;;;10.13;100.00;100306.81;4953860;28;49794;-76
2023/03/14 10:59:29;;;;;;;;;1.25;0.00;;;;;10.30;100.00;100301.00;4953636;28;49769;-76
2023/03/14 11:02:11;;;;;;;;;1.00;1.00;;;;;11.18;100.00;100431.72;4953826;28;49869;-77
2023/03/14 11:04:58;;;;;;;;;0.50;0.25;;;;;11.26;100.00;100422.22;4953918;28;49880;-77
2023/03/14 11:07:42;;;;;;;;;0.50;0.00;;;;;9.30;100.00;100100.25;4952324;28;51442;-77
2023/03/14 11:10:13;;;;;;;;;1.00;0.00;;;;;10.74;100.00;100313.88;4953369;28;49850;-77
2023/03/14 11:12:49;;;;;;;;;1.00;0.50;;;;;10.56;100.00;100287.38;4953802;28;49626;-77
2023/03/14 11:15:51;;;;;;;;;3.50;1.00;;;;;11.66;100.00;100448.97;4953773;28;50072;-77
2023/03/14 11:18:35;;;;;;;;;0.75;0.75;;;;;11.63;100.00;100434.03;4968568;28;50796;-77
2023/03/14 11:21:29;;;;;;;;;0.25;0.00;;;;;10.73;100.00;100259.59;4971775;28;50023;-78
2023/03/14 11:24:13;;;;;;;;;4.75;0.00;;;;;12.13;100.00;100459.16;4970032;28;49854;-78
2023/03/14 11:26:41;;;;;;;;;0.50;0.50;;;;;12.47;100.00;100452.44;4971036;28;49734;-77
2023/03/14 11:29:19;;;;;;;;;2.75;0.00;;;;;12.70;93.20;100469.28;4971987;28;50797;-77
2023/03/14 11:31:46;;;;;;;;;2.25;1.00;;;;;12.52;89.61;100440.19;4971973;28;49808;-77
2023/03/14 11:34:17;;;;;;;;;2.00;0.00;;;;;12.37;88.32;100387.44;4986599;28;49783;-77
2023/03/14 11:36:46;;;;;;;;;1.00;1.00;;;;;12.57;88.91;100430.59;4970464;28;50102;-78
2023/03/14 11:39:15;;;;;;;;;2.00;1.00;;;;;11.30;84.82;100260.22;4971511;28;49789;-78
2023/03/14 11:41:44;;;;;;;;;3.00;0.00;;;;;10.31;82.07;100153.22;4971582;28;49764;-77
2023/03/14 11:44:21;;;;;;;;;1.00;0.00;;;;;11.40;78.14;100317.28;4971711;28;49645;-77
2023/03/14 11:46:54;;;;;;;;;0.75;0.75;;;;;10.99;80.89;100241.50;4948806;28;50109;-77
2023/03/14 11:49:46;;;;;;;;;0.00;0.00;;;;;11.66;78.34;100349.94;4965178;28;50910;-78
2023/03/14 11:52:32;;;;;;;;;0.00;0.00;;;;;10.81;71.31;100159.94;4970308;28;49795;-77
2023/03/14 11:55:00;;;;;;;;;1.25;0.00;;;;;12.79;69.56;100482.53;4965241;28;49820;-77
2023/03/14 11:57:26;;;;;;;;;0.00;0.00;;;;;12.89;67.12;100505.44;4965785;28;50223;-78
2023/03/14 12:00:18;;;;;;;;;1.00;0.00;;;;;12.91;67.85;100479.09;4970033;28;52174;-78
2023/03/14 12:03:07;;;;;;;;;0.00;0.00;;;;;12.92;68.29;100488.75;4970254;28;49762;-79
2023/03/14 12:05:51;;;;;;;;;0.00;0.00;;;;;12.90;64.06;100482.59;4970191;28;49794;-77
2023/03/14 12:08:52;;;;;;;;;0.00;0.00;;;;;12.89;60.78;100499.28;4971677;28;50011;-77
2023/03/14 12:11:25;;;;;;;;;2.75;1.00;;;;;12.03;61.86;100388.00;4969168;28;52472;-77
2023/03/14 12:13:52;;;;;;;;;0.25;0.25;;;;;11.64;61.05;100283.31;4971228;28;49966;-78
2023/03/14 12:16:24;;;;;;;;;0.00;0.00;;;;;13.05;60.92;100509.06;4965302;28;49815;-78
2023/03/14 12:18:50;;;;;;;;;0.00;0.00;;;;;10.80;59.68;100118.75;4951346;28;49808;-78
2023/03/14 12:21:16;;;;;;;;;1.00;1.00;;;;;11.91;59.37;100327.41;4971267;28;49835;-78
2023/03/14 12:23:43;;;;;;;;;0.00;0.00;;;;;12.04;58.13;100387.16;4970978;28;49754;-77
2023/03/14 12:26:11;;;;;;;;;0.00;0.00;;;;;12.89;58.53;100508.06;4970832;28;49877;-78
2023/03/14 12:28:38;;;;;;;;;0.00;0.00;;;;;11.89;56.31;100342.31;4969602;28;49672;-73
2023/03/14 12:31:43;;;;;;;;;0.00;0.00;;;;;12.69;58.36;100470.16;4970818;28;51285;-72
2023/03/14 12:34:09;;;;;;;;;1.00;1.00;;;;;12.91;57.14;100510.72;4928440;28;49901;-76
2023/03/14 12:36:49;;;;;;;;;0.50;0.00;;;;;12.84;57.51;100501.91;4928704;28;49963;-75
2023/03/14 12:39:49;;;;;;;;;2.00;0.00;;;;;12.81;57.46;100496.59;4960000;28;49790;-74
2023/03/14 12:42:29;;;;;;;;;0.75;0.50;;;;;12.91;59.27;100494.91;4970684;28;51046;-77
2023/03/14 12:45:23;;;;;;;;;0.50;0.50;;;;;13.11;59.48;100513.47;4969340;28;49923;-77
2023/03/14 12:48:07;;;;;;;;;0.00;0.00;;;;;13.18;59.48;100479.28;4962051;28;49978;-76
2023/03/14 12:50:45;;;;;;;;;1.00;0.50;;;;;13.40;58.27;100475.00;4948667;28;50086;-76
2023/03/14 12:53:38;;;;;;;;;1.75;0.00;;;;;13.75;57.80;100498.91;4948601;28;51170;-77
2023/03/14 12:56:25;;;;;;;;;5.00;1.25;;;;;13.88;56.82;100507.75;4948995;28;49873;-78
2023/03/14 12:59:10;;;;;;;;;1.00;0.00;;;;;13.21;56.73;100391.44;4951905;28;49797;-77
2023/03/14 13:01:36;;;;;;;;;0.00;0.00;;;;;12.45;57.59;100298.84;4951856;28;50077;-78
2023/03/14 13:04:10;;;;;;;;;0.25;0.25;;;;;11.94;58.96;100280.09;4970468;28;51790;-76
2023/03/14 13:06:54;;;;;;;;;0.25;0.00;;;;;12.30;63.44;100407.53;4970638;28;49699;-78
2023/03/14 13:09:25;;;;;;;;;0.50;0.50;;;;;12.76;87.19;100587.88;4951829;28;50175;-79
2023/03/14 13:11:53;;;;;;;;;2.25;1.00;;;;;10.91;100.00;100415.63;4967205;28;49770;-77
2023/03/14 13:14:18;;;;;;;;;3.00;2.00;;;;;10.23;100.00;100634.06;4968643;28;51265;-76
2023/03/14 13:16:46;;;;;;;;;0.50;0.50;;;;;7.55;100.00;100399.06;4970463;28;50068;-78
2023/03/14 13:19:19;;;;;;;;;1.25;1.25;;;;;9.10;100.00;100739.75;4970648;28;49805;-79
2023/03/14 13:21:44;;;;;;;;;1.00;1.00;;;;;8.51;100.00;100643.94;4969212;28;49926;-76
2023/03/14 13:24:25;;;;;;;;;0.75;0.50;;;;;7.68;100.00;100448.16;4961020;28;50609;-79
2023/03/14 13:26:54;;;;;;;;;4.75;2.00;;;;;7.80;100.00;100458.06;4951560;28;49870;-81
2023/03/14 13:29:33;;;;;;;;;3.00;3.00;;;;;8.09;100.00;100439.66;4969301;28;49710;-82
2023/03/14 13:32:02;;;;;;;;;2.75;2.00;;;;;8.10;100.00;100389.13;4952136;28;49937;-79
2023/03/14 13:34:32;;;;;;;;;1.50;0.00;;;;;-142.59;100.00;56100.38;4951454;28;51590;-79
2023/03/14 13:36:58;;;;;;;;;2.00;1.00;;;;;-142.59;100.00;56100.38;4945050;28;49695;-78
2023/03/14 13:39:25;;;;;;;;;2.25;1.00;;;;;-142.59;100.00;56100.38;4951399;28;49752;-78
2023/03/14 13:41:53;;;;;;;;;0.00;0.00;;;;;-142.59;100.00;56100.38;4951578;28;49835;-79
2023/03/14 13:44:29;;;;;;;;;1.00;1.00;;;;;-142.59;100.00;56100.38;4949279;28;50621;-78
2023/03/14 13:47:00;;;;;;;;;1.00;1.00;;;;;-142.59;100.00;56100.38;4953136;28;49715;-76
2023/03/14 13:49:28;;;;;;;;;3.50;1.00;;;;;-142.59;100.00;56100.38;4952556;28;50051;-79
2023/03/14 13:51:55;;;;;;;;;1.75;1.75;;;;;-142.59;100.00;56100.38;4954041;28;50226;-80
2023/03/14 13:54:22;;;;;;;;;1.00;1.00;;;;;-142.59;100.00;56100.38;4952563;28;49927;-79
2023/03/14 13:56:48;;;;;;;;;0.00;0.00;;;;;-142.59;100.00;56100.38;4952386;28;49976;-77
2023/03/14 13:59:24;;;;;;;;;0.25;0.00;;;;;-142.59;100.00;56100.38;4952029;28;50000;-78
2023/03/14 14:01:51;;;;;;;;;0.00;0.00;;;;;-142.59;100.00;56100.38;4951911;28;50140;-77
2023/03/14 14:04:21;;;;;;;;;0.00;0.00;;;;;-142.59;100.00;56100.38;4952557;28;50705;-78
2023/03/14 14:06:53;;;;;;;;;0.75;0.75;;;;;-142.59;100.00;56100.38;4951507;28;50069;-77
2023/03/14 14:09:35;;;;;;;;;0.75;0.75;;;;;-142.59;100.00;56100.38;4949713;28;49961;-77
2023/03/14 14:12:17;;;;;;;;;0.50;0.50;;;;;-142.59;100.00;56100.38;4967579;28;49946;-77
2023/03/14 14:14:46;;;;;;;;;0.00;0.00;;;;;-142.59;100.00;56100.38;4951643;28;50870;-78
2023/03/14 14:17:18;;;;;;;;;1.00;0.00;;;;;-142.59;100.00;56100.38;4954797;28;50023;-79
2023/03/14 14:19:44;;;;;;;;;0.25;0.25;;;;;-142.59;100.00;56100.38;4953614;28;49637;-79
2023/03/14 14:22:10;;;;;;;;;1.00;1.00;;;;;-142.59;100.00;56100.38;4950696;28;49947;-78
2023/03/14 14:24:39;;;;;;;;;5.75;1.00;;;;;-142.59;100.00;56100.38;4951611;28;49833;-79
2023/03/14 14:27:28;;;;;;;;;3.00;0.00;;;;;-142.59;100.00;56100.38;4950416;28;49900;-78
2023/03/14 14:30:02;;;;;;;;;1.25;0.00;;;;;-142.59;100.00;56100.38;4951666;28;49956;-78
2023/03/14 14:32:38;;;;;;;;;0.00;0.00;;;;;-142.59;100.00;56100.38;4951432;28;50143;-78
2023/03/14 14:35:04;;;;;;;;;0.00;0.00;;;;;-142.59;100.00;56100.38;4952440;28;52708;-79
2023/03/14 14:37:40;;;;;;;;;1.00;0.00;;;;;-142.59;100.00;56100.38;4953895;28;49691;-78
2023/03/14 14:40:29;;;;;;;;;2.00;0.25;;;;;-142.59;100.00;56100.38;4953820;28;49745;-78
2023/03/14 14:43:02;;;;;;;;;1.00;0.00;;;;;-142.59;100.00;56100.38;4953840;28;49992;-78
2023/03/14 14:45:28;;;;;;;;;0.00;0.00;;;;;-142.59;100.00;56100.38;4953769;28;49960;-78
2023/03/14 14:48:09;;;;;;;;;0.00;0.00;;;;;-142.59;100.00;56100.38;4952995;28;49873;-79
2023/03/14 14:50:38;;;;;;;;;2.00;0.00;;;;;-142.59;100.00;56100.38;4968490;28;50019;-78
2023/03/14 14:53:36;;;;;;;;;0.00;0.00;;;;;-142.59;100.00;56100.38;4953545;28;49846;-77
2023/03/14 14:56:17;;;;;;;;;0.00;0.00;;;;;-142.59;100.00;56100.38;4953385;28;49781;-77
2023/03/14 14:58:46;;;;;;;;;0.00;0.00;;;;;-142.59;100.00;56100.38;4952794;28;49772;-77
2023/03/14 15:01:16;;;;;;;;;0.75;0.75;;;;;-142.59;100.00;56100.38;4954058;28;49854;-78
2023/03/14 15:03:43;;;;;;;;;0.00;0.00;;;;;-142.59;100.00;56100.38;4954054;28;49633;-77
2023/03/14 15:06:12;;;;;;;;;0.00;0.00;;;;;-142.59;100.00;56100.38;4952299;28;52662;-77
2023/03/14 15:08:37;;;;;;;;;0.00;0.00;;;;;-142.59;100.00;56100.38;4953212;28;49675;-77
2023/03/14 15:11:03;;;;;;;;;0.00;0.00;;;;;-142.59;100.00;56100.38;4968419;28;50214;-77
2023/03/14 15:13:28;;;;;;;;;1.25;1.25;;;;;-142.59;100.00;56100.38;4952406;28;50031;-77
2023/03/14 15:15:56;;;;;;;;;1.00;0.00;;;;;-142.59;100.00;56100.38;4952070;28;50902;-77
2023/03/14 15:18:24;;;;;;;;;0.00;0.00;;;;;-142.59;100.00;56100.38;4952681;28;49988;-77
2023/03/14 15:20:51;;;;;;;;;0.00;0.00;;;;;-142.59;100.00;56100.38;4952923;28;50301;-77
2023/03/14 15:23:19;;;;;;;;;0.75;0.00;;;;;-142.59;100.00;56100.38;4952408;28;50646;-77
2023/03/14 15:25:48;;;;;;;;;1.00;0.00;;;;;-142.59;100.00;56100.38;4951986;28;49808;-77
2023/03/14 15:28:22;;;;;;;;;0.00;0.00;;;;;-142.59;100.00;56100.38;4952261;28;49826;-76
2023/03/14 15:30:53;;;;;;;;;0.00;0.00;;;;;-142.59;100.00;56100.38;4952395;28;49908;-77
2023/03/14 15:33:18;;;;;;;;;6.00;1.75;;;;;-142.59;100.00;56100.38;4950703;28;49882;-77
2023/03/14 15:35:44;;;;;;;;;1.00;1.00;;;;;-142.59;100.00;56100.38;4950593;28;52130;-77
2023/03/14 15:38:11;;;;;;;;;2.00;1.00;;;;;-142.59;100.00;56100.38;4954099;28;49920;-77
2023/03/14 15:40:37;;;;;;;;;0.00;0.00;;;;;-142.59;100.00;56100.38;4953202;28;50100;-77
2023/03/14 15:43:02;;;;;;;;;2.00;1.00;;;;;-142.59;100.00;56100.38;4952299;28;49843;-76
2023/03/14 15:45:29;;;;;;;;;3.00;1.00;;;;;-142.59;100.00;56100.38;4953243;28;49965;-77
2023/03/14 15:47:54;;;;;;;;;0.00;0.00;;;;;-142.59;100.00;56100.38;4952426;28;50788;-76
2023/03/14 15:50:20;;;;;;;;;0.00;0.00;;;;;-142.59;100.00;56100.38;4951670;28;50232;-77
2023/03/14 15:52:45;;;;;;;;;1.00;0.00;;;;;-142.59;100.00;56100.38;4966735;28;49937;-77
2023/03/14 15:55:11;;;;;;;;;1.00;0.25;;;;;-142.59;100.00;56100.38;4951766;28;50662;-77
2023/03/14 15:57:37;;;;;;;;;0.50;0.50;;;;;-142.59;100.00;56100.38;4951614;28;49676;-77
2023/03/14 16:00:04;;;;;;;;;1.25;0.00;;;;;-142.59;100.00;56100.38;4958053;28;49864;-77
2023/03/14 16:02:30;;;;;;;;;0.00;0.00;;;;;-142.59;100.00;56100.38;4951990;28;50080;-76
2023/03/14 16:04:55;;;;;;;;;2.00;1.00;;;;;-142.59;100.00;56100.38;4951492;28;51071;-77
2023/03/14 16:07:20;;;;;;;;;0.00;0.00;;;;;-142.59;100.00;56100.38;4953214;28;49876;-76
2023/03/14 16:09:46;;;;;;;;;2.00;1.00;;;;;-142.59;100.00;56100.38;4951312;28;50128;-76
2023/03/14 16:12:11;;;;;;;;;0.75;0.00;;;;;-142.59;100.00;56100.38;4952047;28;49940;-76
2023/03/14 16:14:42;;;;;;;;;1.00;1.00;;;;;-142.59;100.00;56100.38;4951355;28;50929;-76
2023/03/14 16:17:10;;;;;;;;;1.00;1.00;;;;;-142.59;100.00;56100.38;4951753;28;49918;-76
2023/03/14 16:19:36;;;;;;;;;1.00;1.00;;;;;-142.59;100.00;56100.38;4951739;28;50198;-76
2023/03/14 16:22:01;;;;;;;;;0.75;0.75;;;;;-142.59;100.00;56100.38;4953852;28;50219;-76
2023/03/14 16:24:27;;;;;;;;;6.00;3.25;;;;;-142.59;100.00;56100.38;4954863;28;50865;-76
2023/03/14 16:26:52;;;;;;;;;3.25;2.00;;;;;-142.59;100.00;56100.38;4955128;28;49825;-75
2023/03/14 16:29:18;;;;;;;;;1.00;1.00;;;;;-142.59;100.00;56100.38;4951426;28;50180;-76
2023/03/14 16:31:43;;;;;;;;;0.75;0.50;;;;;-142.59;100.00;56100.38;4951872;28;49878;-76
2023/03/14 16:34:09;;;;;;;;;0.50;0.50;;;;;-142.59;100.00;56100.38;4951107;28;49904;-76
2023/03/14 16:36:34;;;;;;;;;1.50;1.50;;;;;-142.59;100.00;56100.38;4951614;28;49735;-74
2023/03/14 16:39:00;;;;;;;;;1.00;1.00;;;;;-142.59;100.00;56100.38;4950852;28;49874;-83
2023/03/14 16:41:30;;;;;;;;;3.00;1.00;;;;;-142.59;100.00;56100.38;4950051;28;50053;-73
2023/03/14 16:43:58;;;;;;;;;1.00;1.00;;;;;-142.59;100.00;56100.38;4953287;28;50799;-73
2023/03/14 16:46:26;;;;;;;;;0.50;0.00;;;;;-142.59;100.00;56100.38;4971402;28;49986;-75
2023/03/14 16:48:51;;;;;;;;;0.75;0.75;;;;;-142.59;100.00;56100.38;4971083;28;49879;-70
2023/03/14 16:51:17;;;;;;;;;2.00;0.00;;;;;-142.59;100.00;56100.38;4971340;28;49748;-79
2023/03/14 16:53:43;;;;;;;;;0.00;0.00;;;;;-142.59;100.00;56100.38;4970842;28;50995;-73
2023/03/14 16:56:09;;;;;;;;;0.25;0.25;;;;;-142.59;100.00;56100.38;4970000;28;49751;-73
2023/03/14 16:58:35;;;;;;;;;1.75;1.75;;;;;-142.59;100.00;56100.38;4963214;28;50115;-71
2023/03/14 17:01:09;;;;;;;;;3.50;1.00;;;;;-142.59;100.00;56100.38;4955334;28;49860;-72
2023/03/14 17:03:39;;;;;;;;;1.50;1.00;;;;;-142.59;100.00;56100.38;4951383;28;49822;-71
2023/03/14 17:06:05;;;;;;;;;0.50;0.50;;;;;-142.59;100.00;56100.38;4953123;28;50134;-72
2023/03/14 17:08:30;;;;;;;;;3.00;1.25;;;;;-142.59;100.00;56100.38;4951930;28;49995;-73
2023/03/14 17:10:56;;;;;;;;;1.00;0.00;;;;;-142.59;100.00;56100.38;4952212;28;49898;-73
2023/03/14 17:13:24;;;;;;;;;2.00;1.50;;;;;-142.59;100.00;56100.38;4952171;28;50846;-69
2023/03/14 17:15:54;;;;;;;;;0.00;0.00;;;;;-142.59;100.00;56100.38;4951898;28;49704;-73